createdAt,value
2023-07-03T00:00:55.270Z,99253.00
2023-07-03T00:01:59.535Z,99255.91
2023-07-03T00:03:03.674Z,99258.75
2023-07-03T00:04:05.815Z,99256.59
2023-07-03T00:05:12.582Z,99250.59
2023-07-03T00:06:14.447Z,99260.75
2023-07-03T00:07:16.697Z,99263.09
2023-07-03T00:08:19.321Z,99264.06
2023-07-03T00:09:21.242Z,99274.94
2023-07-03T00:10:23.268Z,99278.41
2023-07-03T00:11:25.217Z,99276.09
2023-07-03T00:12:27.516Z,99277.37
2023-07-03T00:13:29.619Z,99275.31
2023-07-03T00:14:31.507Z,99277.03
2023-07-03T00:15:33.544Z,99270.72
2023-07-03T00:16:35.467Z,99279.63
2023-07-03T00:17:38.778Z,99278.03
2023-07-03T00:18:40.832Z,99277.81
2023-07-03T00:19:42.774Z,99276.13
2023-07-03T00:20:47.106Z,99275.25
2023-07-03T00:21:49.258Z,99277.69
2023-07-03T00:22:54.024Z,99278.63
2023-07-03T00:23:55.906Z,99278.84
2023-07-03T00:24:57.833Z,99277.25
2023-07-03T00:25:59.828Z,99270.16
2023-07-03T00:27:02.305Z,99273.88
2023-07-03T00:28:04.712Z,99271.50
2023-07-03T00:29:06.780Z,99276.22
2023-07-03T00:30:09.305Z,99272.16
2023-07-03T00:31:11.347Z,99276.22
2023-07-03T00:32:13.416Z,99279.63
2023-07-03T00:33:15.714Z,99278.84
2023-07-03T00:34:19.967Z,99282.69
2023-07-03T00:35:22.021Z,99280.19
2023-07-03T00:36:24.015Z,99283.41
2023-07-03T00:37:26.275Z,99282.38
2023-07-03T00:38:28.544Z,99287.69
2023-07-03T00:39:30.477Z,99286.69
2023-07-03T00:40:32.433Z,99283.16
2023-07-03T00:41:34.431Z,99287.09
2023-07-03T00:42:37.533Z,99292.59
2023-07-03T00:43:42.511Z,99281.16
2023-07-03T00:44:44.522Z,99284.66
2023-07-03T00:45:47.788Z,99286.19
2023-07-03T00:46:51.926Z,99280.94
2023-07-03T00:47:54.372Z,99281.72
2023-07-03T00:48:57.594Z,99285.66
2023-07-03T00:50:00.785Z,99288.09
2023-07-03T00:51:03.136Z,99280.81
2023-07-03T00:52:06.242Z,99283.97
2023-07-03T00:53:08.680Z,99283.78
2023-07-03T00:54:11.750Z,99286.78
2023-07-03T00:55:15.019Z,99277.78
2023-07-03T00:56:16.951Z,99282.84
2023-07-03T00:57:18.988Z,99281.59
2023-07-03T00:58:21.046Z,99285.41
2023-07-03T00:59:23.428Z,99289.22
2023-07-03T01:00:34.259Z,99282.53
2023-07-03T01:01:44.920Z,99288.19
2023-07-03T01:03:08.035Z,99286.00
2023-07-03T01:04:41.974Z,99285.09
2023-07-03T01:05:51.307Z,99280.59
2023-07-03T01:07:01.510Z,99280.38
2023-07-03T01:08:03.501Z,99283.84
2023-07-03T01:09:05.765Z,99286.22
2023-07-03T01:10:15.314Z,99285.34
2023-07-03T01:11:20.401Z,99283.78
2023-07-03T01:12:24.656Z,99290.84
2023-07-03T01:13:30.725Z,99288.88
2023-07-03T01:14:35.083Z,99285.84
2023-07-03T01:15:41.601Z,99290.25
2023-07-03T01:16:46.860Z,99290.47
2023-07-03T01:17:52.431Z,99296.03
2023-07-03T01:18:54.815Z,99298.97
2023-07-03T01:19:59.092Z,99294.63
2023-07-03T01:21:24.586Z,99299.94
2023-07-03T01:22:31.773Z,99301.28
2023-07-03T01:23:52.872Z,99296.34
2023-07-03T01:25:11.291Z,99304.75
2023-07-03T01:26:16.018Z,99286.19
2023-07-03T01:27:22.132Z,99295.41
2023-07-03T01:28:26.515Z,99287.59
2023-07-03T01:29:29.672Z,99291.91
2023-07-03T01:30:32.836Z,99294.25
2023-07-03T01:31:37.098Z,99288.19
2023-07-03T01:32:39.533Z,99294.41
2023-07-03T01:33:45.900Z,99291.91
2023-07-03T01:34:50.041Z,99299.16
2023-07-03T01:35:55.000Z,99298.75
2023-07-03T01:36:59.779Z,99297.34
2023-07-03T01:38:02.911Z,99300.56
2023-07-03T01:39:05.746Z,99305.09
2023-07-03T01:40:13.919Z,99298.47
2023-07-03T01:41:17.773Z,99298.47
2023-07-03T01:42:26.341Z,99290.56
2023-07-03T01:43:29.299Z,99293.44
2023-07-03T01:44:31.636Z,99288.16
2023-07-03T01:45:45.116Z,99292.41
2023-07-03T01:46:47.171Z,99285.94
2023-07-03T01:47:49.460Z,99289.34
2023-07-03T01:48:51.537Z,99287.97
2023-07-03T01:49:53.886Z,99285.19
2023-07-03T01:50:55.972Z,99288.59
2023-07-03T01:52:17.941Z,99290.56
2023-07-03T01:53:26.608Z,99285.59
2023-07-03T01:54:36.752Z,99290.59
2023-07-03T01:55:51.186Z,99285.91
2023-07-03T01:56:56.080Z,99288.06
2023-07-03T01:58:09.846Z,99292.28
2023-07-03T01:59:15.541Z,99282.78
2023-07-03T02:00:27.311Z,99291.25
2023-07-03T02:01:38.698Z,99289.19
2023-07-03T02:02:43.872Z,99293.88
2023-07-03T02:03:53.571Z,99288.94
2023-07-03T02:05:10.362Z,99287.38
2023-07-03T02:06:21.650Z,99295.59
2023-07-03T02:07:25.540Z,99286.88
2023-07-03T02:08:30.514Z,99286.34
2023-07-03T02:09:33.557Z,99286.78
2023-07-03T02:10:36.329Z,99282.78
2023-07-03T02:11:38.452Z,99286.00
2023-07-03T02:12:46.124Z,99289.72
2023-07-03T02:13:49.452Z,99282.84
2023-07-03T02:14:51.923Z,99288.06
2023-07-03T02:15:53.902Z,99289.09
2023-07-03T02:16:56.071Z,99285.97
2023-07-03T02:17:58.478Z,99291.03
2023-07-03T02:19:00.822Z,99287.00
2023-07-03T02:20:03.674Z,99290.69
2023-07-03T02:21:06.441Z,99293.19
2023-07-03T02:22:08.890Z,99291.00
2023-07-03T02:23:12.706Z,99292.34
2023-07-03T02:24:17.249Z,99292.94
2023-07-03T02:25:19.249Z,99285.28
2023-07-03T02:26:21.227Z,99297.69
2023-07-03T02:27:23.178Z,99295.97
2023-07-03T02:28:25.180Z,99293.88
2023-07-03T02:29:27.547Z,99296.00
2023-07-03T02:30:29.497Z,99293.34
2023-07-03T02:31:31.601Z,99291.19
2023-07-03T02:32:38.770Z,99297.25
2023-07-03T02:33:40.749Z,99299.53
2023-07-03T02:34:42.988Z,99297.19
2023-07-03T02:35:45.036Z,99295.81
2023-07-03T02:36:47.221Z,99298.72
2023-07-03T02:37:49.347Z,99305.94
2023-07-03T02:38:51.507Z,99301.00
2023-07-03T02:39:53.792Z,99301.53
2023-07-03T02:40:55.702Z,99302.88
2023-07-03T02:41:58.958Z,99310.72
2023-07-03T02:43:01.176Z,99308.66
2023-07-03T02:44:03.160Z,99311.84
2023-07-03T02:45:07.414Z,99306.81
2023-07-03T02:46:09.827Z,99301.78
2023-07-03T02:47:12.036Z,99309.22
2023-07-03T02:48:15.018Z,99305.00
2023-07-03T02:49:18.540Z,99306.00
2023-07-03T02:50:21.062Z,99302.78
2023-07-03T02:51:23.195Z,99312.31
2023-07-03T02:52:28.326Z,99311.31
2023-07-03T02:53:30.571Z,99312.78
2023-07-03T02:54:33.909Z,99317.53
2023-07-03T02:55:36.573Z,99320.69
2023-07-03T02:56:39.256Z,99325.03
2023-07-03T02:57:41.930Z,99327.41
2023-07-03T02:58:44.150Z,99321.38
2023-07-03T02:59:46.505Z,99323.56
2023-07-03T03:00:49.378Z,99320.63
2023-07-03T03:01:51.626Z,99323.03
2023-07-03T03:02:54.153Z,99316.97
2023-07-03T03:03:56.739Z,99324.38
2023-07-03T03:04:59.067Z,99318.28
2023-07-03T03:06:01.767Z,99318.28
2023-07-03T03:07:03.779Z,99317.22
2023-07-03T03:08:05.687Z,99311.16
2023-07-03T03:09:08.219Z,99318.25
2023-07-03T03:10:10.864Z,99325.09
2023-07-03T03:11:13.126Z,99325.63
2023-07-03T03:12:15.418Z,99320.84
2023-07-03T03:13:17.809Z,99324.56
2023-07-03T03:14:20.241Z,99325.59
2023-07-03T03:15:22.196Z,99329.28
2023-07-03T03:16:24.830Z,99326.22
2023-07-03T03:17:26.937Z,99328.34
2023-07-03T03:18:29.029Z,99333.09
2023-07-03T03:19:30.951Z,99324.63
2023-07-03T03:20:33.010Z,99320.13
2023-07-03T03:21:35.274Z,99331.19
2023-07-03T03:22:37.299Z,99328.28
2023-07-03T03:23:39.150Z,99330.91
2023-07-03T03:24:41.291Z,99334.59
2023-07-03T03:25:43.702Z,99332.50
2023-07-03T03:26:45.889Z,99336.69
2023-07-03T03:27:47.845Z,99330.31
2023-07-03T03:28:49.844Z,99337.72
2023-07-03T03:29:51.956Z,99338.56
2023-07-03T03:30:54.154Z,99337.28
2023-07-03T03:31:56.355Z,99343.63
2023-07-03T03:32:58.280Z,99346.28
2023-07-03T03:34:00.325Z,99345.53
2023-07-03T03:35:02.515Z,99339.44
2023-07-03T03:36:04.791Z,99347.34
2023-07-03T03:37:07.366Z,99350.03
2023-07-03T03:38:09.233Z,99351.91
2023-07-03T03:39:11.177Z,99351.13
2023-07-03T03:40:13.186Z,99345.31
2023-07-03T03:41:15.260Z,99352.13
2023-07-03T03:42:18.216Z,99356.69
2023-07-03T03:43:20.608Z,99358.00
2023-07-03T03:44:22.937Z,99358.19
2023-07-03T03:45:25.628Z,99354.97
2023-07-03T03:46:27.516Z,99359.47
2023-07-03T03:47:29.841Z,99352.34
2023-07-03T03:48:34.171Z,99356.56
2023-07-03T03:49:37.898Z,99352.06
2023-07-03T03:50:39.829Z,99343.81
2023-07-03T03:51:41.906Z,99344.03
2023-07-03T03:52:44.463Z,99357.28
2023-07-03T03:53:46.376Z,99352.75
2023-07-03T03:54:48.537Z,99356.91
2023-07-03T03:55:52.075Z,99357.16
2023-07-03T03:56:54.791Z,99359.16
2023-07-03T03:57:57.199Z,99360.19
2023-07-03T03:58:59.118Z,99370.31
2023-07-03T04:00:01.009Z,99370.88
2023-07-03T04:01:03.440Z,99364.56
2023-07-03T04:02:05.890Z,99371.47
2023-07-03T04:03:07.876Z,99367.72
2023-07-03T04:04:09.835Z,99366.09
2023-07-03T04:05:12.828Z,99372.66
2023-07-03T04:06:17.536Z,99366.03
2023-07-03T04:07:19.679Z,99374.47
2023-07-03T04:08:21.780Z,99375.03
2023-07-03T04:09:23.620Z,99372.34
2023-07-03T04:10:25.634Z,99377.94
2023-07-03T04:11:29.353Z,99376.13
2023-07-03T04:12:31.601Z,99373.16
2023-07-03T04:13:33.569Z,99369.63
2023-07-03T04:14:35.513Z,99372.28
2023-07-03T04:15:52.766Z,99373.31
2023-07-03T04:16:58.674Z,99370.88
2023-07-03T04:18:01.930Z,99374.28
2023-07-03T04:19:03.918Z,99370.06
2023-07-03T04:20:14.374Z,99374.81
2023-07-03T04:21:18.862Z,99374.25
2023-07-03T04:22:21.031Z,99382.97
2023-07-03T04:23:23.558Z,99373.81
2023-07-03T04:24:25.928Z,99389.28
2023-07-03T04:25:28.008Z,99385.63
2023-07-03T04:26:29.880Z,99385.03
2023-07-03T04:27:31.799Z,99383.97
2023-07-03T04:28:33.954Z,99388.72
2023-07-03T04:29:35.849Z,99383.81
2023-07-03T04:30:38.373Z,99386.78
2023-07-03T04:31:40.425Z,99393.91
2023-07-03T04:32:42.423Z,99386.84
2023-07-03T04:33:46.668Z,99391.81
2023-07-03T04:34:48.517Z,99392.56
2023-07-03T04:35:50.562Z,99392.50
2023-07-03T04:36:52.697Z,99396.12
2023-07-03T04:37:54.548Z,99398.53
2023-07-03T04:38:58.422Z,99393.94
2023-07-03T04:40:00.321Z,99399.28
2023-07-03T04:41:02.319Z,99396.06
2023-07-03T04:42:04.711Z,99398.03
2023-07-03T04:43:09.411Z,99397.72
2023-07-03T04:44:13.859Z,99407.91
2023-07-03T04:45:17.274Z,99409.62
2023-07-03T04:46:26.760Z,99405.94
2023-07-03T04:47:28.828Z,99407.63
2023-07-03T04:48:32.513Z,99409.62
2023-07-03T04:49:34.902Z,99407.91
2023-07-03T04:50:37.078Z,99413.66
2023-07-03T04:51:41.016Z,99414.19
2023-07-03T04:52:45.106Z,99407.19
2023-07-03T04:53:46.993Z,99414.81
2023-07-03T04:54:49.194Z,99409.81
2023-07-03T04:55:52.127Z,99413.97
2023-07-03T04:56:55.091Z,99416.31
2023-07-03T04:57:58.466Z,99410.38
2023-07-03T04:59:00.368Z,99411.66
2023-07-03T05:00:02.508Z,99411.59
2023-07-03T05:01:06.144Z,99414.66
2023-07-03T05:02:08.077Z,99408.13
2023-07-03T05:03:10.556Z,99406.75
2023-07-03T05:04:13.293Z,99410.19
2023-07-03T05:05:17.698Z,99417.03
2023-07-03T05:06:19.689Z,99411.22
2023-07-03T05:07:23.517Z,99408.56
2023-07-03T05:08:25.771Z,99409.19
2023-07-03T05:09:27.668Z,99410.56
2023-07-03T05:10:30.622Z,99405.81
2023-07-03T05:11:34.270Z,99408.84
2023-07-03T05:12:37.226Z,99415.91
2023-07-03T05:13:39.108Z,99410.41
2023-07-03T05:14:40.981Z,99413.06
2023-07-03T05:15:43.377Z,99415.44
2023-07-03T05:16:45.256Z,99414.69
2023-07-03T05:17:52.406Z,99408.22
2023-07-03T05:18:54.267Z,99414.44
2023-07-03T05:19:56.879Z,99421.53
2023-07-03T05:20:59.028Z,99419.16
2023-07-03T05:22:00.903Z,99421.53
2023-07-03T05:23:02.811Z,99422.44
2023-07-03T05:24:04.937Z,99420.44
2023-07-03T05:25:08.973Z,99423.94
2023-07-03T05:26:11.154Z,99422.94
2023-07-03T05:27:13.055Z,99424.72
2023-07-03T05:28:15.216Z,99429.75
2023-07-03T05:29:17.061Z,99430.44
2023-07-03T05:30:19.169Z,99433.19
2023-07-03T05:31:23.904Z,99422.66
2023-07-03T05:32:26.495Z,99424.91
2023-07-03T05:33:29.705Z,99426.88
2023-07-03T05:34:32.966Z,99432.38
2023-07-03T05:35:42.501Z,99427.59
2023-07-03T05:36:50.694Z,99428.22
2023-07-03T05:37:52.587Z,99433.31
2023-07-03T05:38:54.453Z,99423.28
2023-07-03T05:39:56.702Z,99430.53
2023-07-03T05:40:58.584Z,99426.66
2023-07-03T05:42:00.813Z,99428.59
2023-07-03T05:43:02.718Z,99428.41
2023-07-03T05:44:04.698Z,99437.87
2023-07-03T05:45:06.947Z,99436.97
2023-07-03T05:46:08.798Z,99432.00
2023-07-03T05:47:11.654Z,99438.69
2023-07-03T05:48:13.637Z,99441.09
2023-07-03T05:49:15.595Z,99441.75
2023-07-03T05:50:17.493Z,99437.69
2023-07-03T05:51:19.520Z,99431.50
2023-07-03T05:52:21.751Z,99436.97
2023-07-03T05:53:25.000Z,99440.41
2023-07-03T05:54:27.117Z,99450.63
2023-07-03T05:55:28.995Z,99443.94
2023-07-03T05:56:30.873Z,99444.69
2023-07-03T05:57:33.108Z,99452.97
2023-07-03T05:58:34.978Z,99445.84
2023-07-03T05:59:38.862Z,99450.72
2023-07-03T06:00:41.437Z,99454.41
2023-07-03T06:01:44.338Z,99454.91
2023-07-03T06:02:48.455Z,99453.84
2023-07-03T06:03:51.204Z,99459.69
2023-07-03T06:04:53.155Z,99459.06
2023-07-03T06:05:55.282Z,99455.47
2023-07-03T06:06:57.995Z,99456.75
2023-07-03T06:07:59.852Z,99453.94
2023-07-03T06:09:01.690Z,99452.56
2023-07-03T06:10:04.833Z,99457.38
2023-07-03T06:11:06.851Z,99455.47
2023-07-03T06:12:09.388Z,99455.06
2023-07-03T06:13:11.447Z,99455.88
2023-07-03T06:14:18.519Z,99458.06
2023-07-03T06:15:20.391Z,99456.50
2023-07-03T06:16:22.300Z,99459.47
2023-07-03T06:17:26.156Z,99465.34
2023-07-03T06:18:28.662Z,99459.19
2023-07-03T06:19:31.062Z,99456.22
2023-07-03T06:20:34.588Z,99456.53
2023-07-03T06:21:36.605Z,99461.41
2023-07-03T06:22:42.917Z,99464.72
2023-07-03T06:23:44.932Z,99462.38
2023-07-03T06:24:47.013Z,99469.13
2023-07-03T06:25:49.153Z,99469.31
2023-07-03T06:26:51.954Z,99467.44
2023-07-03T06:27:54.194Z,99473.41
2023-07-03T06:28:56.032Z,99470.56
2023-07-03T06:29:57.905Z,99458.44
2023-07-03T06:30:59.872Z,99471.34
2023-07-03T06:32:01.762Z,99480.00
2023-07-03T06:33:03.985Z,99472.75
2023-07-03T06:34:05.964Z,99468.94
2023-07-03T06:35:08.483Z,99477.94
2023-07-03T06:36:10.420Z,99471.94
2023-07-03T06:37:12.329Z,99472.38
2023-07-03T06:38:14.510Z,99471.44
2023-07-03T06:39:16.448Z,99468.88
2023-07-03T06:40:19.926Z,99474.94
2023-07-03T06:41:22.313Z,99471.50
2023-07-03T06:42:24.188Z,99476.03
2023-07-03T06:43:29.825Z,99475.56
2023-07-03T06:44:31.692Z,99475.91
2023-07-03T06:45:38.003Z,99474.44
2023-07-03T06:46:40.496Z,99473.16
2023-07-03T06:47:42.587Z,99478.03
2023-07-03T06:48:44.862Z,99475.66
2023-07-03T06:49:46.818Z,99479.41
2023-07-03T06:50:48.701Z,99475.00
2023-07-03T06:51:50.544Z,99467.09
2023-07-03T06:52:52.431Z,99470.62
2023-07-03T06:53:54.699Z,99467.75
2023-07-03T06:54:56.576Z,99466.97
2023-07-03T06:55:59.964Z,99463.38
2023-07-03T06:57:02.158Z,99465.66
2023-07-03T06:58:04.258Z,99464.31
2023-07-03T06:59:06.442Z,99460.53
2023-07-03T07:00:09.952Z,99471.84
2023-07-03T07:01:13.452Z,99465.28
2023-07-03T07:02:15.360Z,99468.41
2023-07-03T07:03:17.408Z,99466.38
2023-07-03T07:04:19.835Z,99465.25
2023-07-03T07:05:22.465Z,99468.37
2023-07-03T07:06:30.185Z,99462.44
2023-07-03T07:07:32.315Z,99466.81
2023-07-03T07:08:34.173Z,99462.81
2023-07-03T07:09:36.393Z,99464.62
2023-07-03T07:10:41.238Z,99467.50
2023-07-03T07:11:43.318Z,99464.88
2023-07-03T07:12:45.205Z,99470.28
2023-07-03T07:13:48.639Z,99466.94
2023-07-03T07:14:50.822Z,99468.84
2023-07-03T07:15:52.986Z,99464.81
2023-07-03T07:16:55.130Z,99464.75
2023-07-03T07:17:57.038Z,99464.97
2023-07-03T07:19:03.722Z,99465.06
2023-07-03T07:20:06.514Z,99472.09
2023-07-03T07:21:09.250Z,99465.25
2023-07-03T07:22:11.123Z,99463.03
2023-07-03T07:23:13.610Z,99470.09
2023-07-03T07:24:23.433Z,99470.19
2023-07-03T07:25:25.686Z,99469.09
2023-07-03T07:26:34.992Z,99470.56
2023-07-03T07:27:37.031Z,99475.56
2023-07-03T07:28:38.929Z,99473.34
2023-07-03T07:29:41.304Z,99474.03
2023-07-03T07:30:43.531Z,99473.09
2023-07-03T07:31:45.457Z,99470.88
2023-07-03T07:32:53.551Z,99468.31
2023-07-03T07:33:55.603Z,99461.03
2023-07-03T07:34:57.421Z,99468.66
2023-07-03T07:35:59.723Z,99460.78
2023-07-03T07:37:01.582Z,99468.06
2023-07-03T07:38:03.499Z,99460.44
2023-07-03T07:39:05.562Z,99460.13
2023-07-03T07:40:08.106Z,99455.38
2023-07-03T07:41:10.272Z,99457.59
2023-07-03T07:42:12.433Z,99465.19
2023-07-03T07:43:14.670Z,99466.78
2023-07-03T07:44:16.540Z,99460.56
2023-07-03T07:45:18.476Z,99464.59
2023-07-03T07:46:21.013Z,99462.97
2023-07-03T07:47:22.921Z,99455.16
2023-07-03T07:48:25.270Z,99460.78
2023-07-03T07:49:29.258Z,99463.47
2023-07-03T07:50:35.286Z,99475.09
2023-07-03T07:51:37.466Z,99468.69
2023-07-03T07:52:39.307Z,99467.09
2023-07-03T07:53:41.221Z,99455.88
2023-07-03T07:54:43.588Z,99475.37
2023-07-03T07:55:45.860Z,99471.12
2023-07-03T07:56:48.036Z,99467.87
2023-07-03T07:57:50.177Z,99467.09
2023-07-03T07:58:53.095Z,99462.84
2023-07-03T07:59:55.069Z,99466.91
2023-07-03T08:00:58.919Z,99460.13
2023-07-03T08:02:01.476Z,99460.31
2023-07-03T08:03:05.498Z,99459.91
2023-07-03T08:04:09.408Z,99460.97
2023-07-03T08:05:11.398Z,99464.88
2023-07-03T08:06:14.751Z,99471.69
2023-07-03T08:07:16.963Z,99469.31
2023-07-03T08:08:18.826Z,99463.09
2023-07-03T08:09:24.250Z,99458.69
2023-07-03T08:10:26.160Z,99470.16
2023-07-03T08:11:29.755Z,99470.03
2023-07-03T08:12:32.129Z,99473.63
2023-07-03T08:13:35.319Z,99476.56
2023-07-03T08:14:37.137Z,99468.28
2023-07-03T08:15:38.989Z,99473.09
2023-07-03T08:16:40.911Z,99473.25
2023-07-03T08:17:43.139Z,99463.69
2023-07-03T08:18:47.675Z,99467.78
2023-07-03T08:19:51.437Z,99471.66
2023-07-03T08:20:54.186Z,99466.19
2023-07-03T08:21:56.743Z,99476.06
2023-07-03T08:22:58.883Z,99467.75
2023-07-03T08:24:00.771Z,99463.38
2023-07-03T08:25:03.583Z,99467.56
2023-07-03T08:26:05.586Z,99475.03
2023-07-03T08:27:07.921Z,99472.69
2023-07-03T08:28:11.065Z,99476.31
2023-07-03T08:29:12.909Z,99469.44
2023-07-03T08:30:15.678Z,99474.84
2023-07-03T08:31:18.084Z,99475.19
2023-07-03T08:32:21.072Z,99470.41
2023-07-03T08:33:23.325Z,99473.38
2023-07-03T08:34:25.353Z,99467.81
2023-07-03T08:37:36.735Z,99470.31
2023-07-03T08:38:38.873Z,99469.63
2023-07-03T08:39:40.885Z,99471.28
2023-07-03T08:40:43.493Z,99474.00
2023-07-03T08:41:52.553Z,99471.06
2023-07-03T08:43:00.079Z,99469.09
2023-07-03T08:44:02.592Z,99475.63
2023-07-03T08:45:07.745Z,99480.88
2023-07-03T08:46:21.108Z,99477.81
2023-07-03T08:47:28.168Z,99479.62
2023-07-03T08:48:33.564Z,99484.50
2023-07-03T08:49:35.991Z,99476.97
2023-07-03T08:50:39.301Z,99472.22
2023-07-03T08:51:41.567Z,99476.25
2023-07-03T08:52:51.102Z,99484.16
2023-07-03T08:53:56.458Z,99489.09
2023-07-03T08:54:59.242Z,99488.59
2023-07-03T08:56:08.198Z,99487.91
2023-07-03T08:57:12.043Z,99482.66
2023-07-03T08:58:14.087Z,99481.53
2023-07-03T08:59:16.231Z,99489.03
2023-07-03T09:00:19.455Z,99490.31
2023-07-03T09:01:47.866Z,99485.13
2023-07-03T09:03:10.605Z,99482.94
2023-07-03T09:04:27.838Z,99481.97
2023-07-03T09:05:29.935Z,99481.28
2023-07-03T09:06:34.576Z,99472.78
2023-07-03T09:08:08.577Z,99481.47
2023-07-03T09:09:43.705Z,99478.78
2023-07-03T09:10:50.517Z,99479.53
2023-07-03T09:12:26.391Z,99480.97
2023-07-03T09:13:43.660Z,99481.22
2023-07-03T09:14:53.801Z,99474.69
2023-07-03T09:16:05.146Z,99476.59
2023-07-03T09:17:11.489Z,99476.00
2023-07-03T09:18:20.708Z,99475.19
2023-07-03T09:19:26.533Z,99474.59
2023-07-03T09:20:30.634Z,99473.56
2023-07-03T09:21:35.126Z,99469.81
2023-07-03T09:23:03.388Z,99469.63
2023-07-03T09:24:31.566Z,99473.88
2023-07-03T09:25:42.217Z,99469.97
2023-07-03T09:26:53.474Z,99482.63
2023-07-03T09:27:57.653Z,99474.03
2023-07-03T09:29:00.145Z,99475.53
2023-07-03T09:30:05.784Z,99473.38
2023-07-03T09:31:07.758Z,99475.13
2023-07-03T09:32:25.089Z,99474.78
2023-07-03T09:33:27.141Z,99472.59
2023-07-03T09:34:48.972Z,99474.47
2023-07-03T09:35:51.059Z,99481.03
2023-07-03T09:37:00.083Z,99481.97
2023-07-03T09:38:06.133Z,99477.44
2023-07-03T09:39:11.948Z,99481.13
2023-07-03T09:40:23.556Z,99480.28
2023-07-03T09:41:28.730Z,99478.06
2023-07-03T09:42:33.382Z,99484.13
2023-07-03T09:43:44.173Z,99477.22
2023-07-03T09:44:46.005Z,99472.88
2023-07-03T09:45:49.473Z,99479.38
2023-07-03T09:46:51.549Z,99477.38
2023-07-03T09:47:59.569Z,99473.72
2023-07-03T09:49:06.171Z,99476.91
2023-07-03T09:50:09.815Z,99478.44
2023-07-03T09:51:20.863Z,99479.12
2023-07-03T09:52:24.631Z,99468.09
2023-07-03T09:53:28.079Z,99475.37
2023-07-03T09:54:32.883Z,99480.13
2023-07-03T09:55:35.795Z,99479.97
2023-07-03T09:56:38.950Z,99484.94
2023-07-03T09:57:40.814Z,99480.53
2023-07-03T09:58:49.377Z,99475.19
2023-07-03T10:00:20.106Z,99479.94
2023-07-03T10:03:36.550Z,99478.56
2023-07-03T10:07:07.069Z,99482.09
2023-07-03T10:08:10.496Z,99485.94
2023-07-03T10:11:56.835Z,99488.09
2023-07-03T10:13:33.141Z,99477.28
2023-07-03T10:15:13.926Z,99474.81
2023-07-03T10:16:16.431Z,99475.44
2023-07-03T10:17:50.395Z,99465.59
2023-07-03T10:18:57.158Z,99477.84
2023-07-03T10:20:04.899Z,99473.59
2023-07-03T10:21:12.236Z,99477.22
2023-07-03T10:22:15.663Z,99468.31
2023-07-03T10:23:24.571Z,99467.41
2023-07-03T10:24:26.809Z,99467.63
2023-07-03T10:25:33.515Z,99476.31
2023-07-03T10:26:44.133Z,99459.69
2023-07-03T10:27:47.239Z,99463.34
2023-07-03T10:29:13.018Z,99460.75
2023-07-03T10:30:19.589Z,99460.03
2023-07-03T10:31:44.514Z,99463.16
2023-07-03T10:32:53.251Z,99463.44
2023-07-03T10:34:04.540Z,99466.44
2023-07-03T10:35:19.536Z,99471.19
2023-07-03T10:36:27.332Z,99468.37
2023-07-03T10:37:34.080Z,99466.13
2023-07-03T10:38:45.124Z,99478.44
2023-07-03T10:40:18.794Z,99472.84
2023-07-03T10:41:32.049Z,99471.47
2023-07-03T10:42:49.695Z,99468.37
2023-07-03T10:43:57.688Z,99466.34
2023-07-03T10:45:07.292Z,99466.06
2023-07-03T10:46:17.244Z,99466.69
2023-07-03T10:47:48.262Z,99467.19
2023-07-03T10:48:54.544Z,99471.09
2023-07-03T10:49:58.358Z,99468.94
2023-07-03T10:51:18.356Z,99469.03
2023-07-03T10:52:35.724Z,99463.06
2023-07-03T10:53:54.153Z,99473.66
2023-07-03T10:55:17.933Z,99468.75
2023-07-03T10:56:38.268Z,99472.94
2023-07-03T10:57:58.740Z,99479.03
2023-07-03T10:59:03.250Z,99474.41
2023-07-03T11:00:13.605Z,99473.53
2023-07-03T11:01:19.145Z,99474.06
2023-07-03T11:02:55.108Z,99476.28
2023-07-03T11:04:24.677Z,99479.09
2023-07-03T11:05:32.129Z,99474.81
2023-07-03T11:06:55.177Z,99462.88
2023-07-03T11:08:12.184Z,99461.78
2023-07-03T11:09:35.865Z,99473.03
2023-07-03T11:10:57.019Z,99476.28
2023-07-03T11:12:13.506Z,99468.09
2023-07-03T11:13:25.843Z,99470.59
2023-07-03T11:14:40.964Z,99464.41
2023-07-03T11:15:47.584Z,99468.94
2023-07-03T11:17:13.963Z,99470.34
2023-07-03T11:23:36.603Z,99468.91
2023-07-03T11:25:10.699Z,99470.25
2023-07-03T11:28:01.962Z,99466.22
2023-07-03T11:29:06.863Z,99472.19
2023-07-03T11:30:10.024Z,99459.97
2023-07-03T11:31:15.380Z,99467.78
2023-07-03T11:32:18.796Z,99465.41
2023-07-03T11:33:22.577Z,99464.66
2023-07-03T11:36:50.446Z,99468.34
2023-07-03T11:41:00.508Z,99456.94
2023-07-03T11:44:31.781Z,99448.12
2023-07-03T11:45:33.693Z,99461.03
2023-07-03T11:46:35.600Z,99456.41
2023-07-03T11:47:37.510Z,99460.81
2023-07-03T11:48:39.401Z,99454.97
2023-07-03T11:49:49.840Z,99453.25
2023-07-03T11:50:57.994Z,99459.59
2023-07-03T11:52:02.271Z,99457.47
2023-07-03T11:53:04.265Z,99451.94
2023-07-03T11:54:20.818Z,99461.81
2023-07-03T11:55:36.917Z,99448.94
2023-07-03T11:56:40.551Z,99456.91
2023-07-03T11:57:49.952Z,99450.22
2023-07-03T11:59:13.445Z,99454.78
2023-07-03T12:00:23.677Z,99451.91
2023-07-03T12:01:33.108Z,99453.19
2023-07-03T12:02:41.126Z,99455.50
2023-07-03T12:04:16.097Z,99455.34
2023-07-03T12:05:42.942Z,99448.59
2023-07-03T12:06:46.488Z,99449.28
2023-07-03T12:07:48.984Z,99452.91
2023-07-03T12:08:51.093Z,99458.94
2023-07-03T12:09:53.035Z,99452.56
2023-07-03T12:11:03.744Z,99454.69
2023-07-03T12:12:14.482Z,99451.97
2023-07-03T12:13:28.354Z,99449.09
2023-07-03T12:14:42.948Z,99450.59
2023-07-03T12:15:44.884Z,99443.44
2023-07-03T12:16:48.702Z,99447.75
2023-07-03T12:18:03.259Z,99446.97
2023-07-03T12:19:13.445Z,99439.53
2023-07-03T12:20:22.931Z,99436.09
2023-07-03T12:21:25.458Z,99442.53
2023-07-03T12:22:29.185Z,99434.69
2023-07-03T12:23:40.582Z,99438.56
2023-07-03T12:24:42.894Z,99447.97
2023-07-03T12:25:44.808Z,99441.56
2023-07-03T12:27:07.072Z,99442.69
2023-07-03T12:28:12.308Z,99447.47
2023-07-03T12:29:18.159Z,99442.75
2023-07-03T12:30:31.613Z,99441.78
2023-07-03T12:31:33.641Z,99444.91
2023-07-03T12:32:37.214Z,99444.34
2023-07-03T12:33:52.859Z,99445.41
2023-07-03T12:34:55.588Z,99444.78
2023-07-03T12:35:57.432Z,99439.50
2023-07-03T12:37:06.062Z,99433.34
2023-07-03T12:38:10.741Z,99442.28
2023-07-03T12:39:15.776Z,99447.41
2023-07-03T12:40:20.219Z,99441.44
2023-07-03T12:41:29.953Z,99439.88
2023-07-03T12:42:32.097Z,99446.25
2023-07-03T12:43:35.707Z,99448.41
2023-07-03T12:44:37.728Z,99441.72
2023-07-03T12:45:39.946Z,99448.75
2023-07-03T12:46:44.389Z,99444.06
2023-07-03T12:48:00.474Z,99446.63
2023-07-03T12:49:18.364Z,99441.88
2023-07-03T12:50:20.233Z,99437.09
2023-07-03T12:51:22.386Z,99439.50
2023-07-03T12:52:26.059Z,99441.72
2023-07-03T12:53:33.431Z,99438.94
2023-07-03T12:54:35.294Z,99438.63
2023-07-03T12:55:38.945Z,99440.75
2023-07-03T12:56:43.166Z,99431.41
2023-07-03T12:57:45.873Z,99443.06
2023-07-03T12:58:47.820Z,99437.25
2023-07-03T12:59:53.087Z,99433.66
2023-07-03T13:01:02.726Z,99433.53
2023-07-03T13:02:05.017Z,99434.53
2023-07-03T13:03:13.456Z,99432.69
2023-07-03T13:04:16.889Z,99428.06
2023-07-03T13:05:22.491Z,99425.12
2023-07-03T13:06:30.586Z,99428.69
2023-07-03T13:07:34.088Z,99430.56
2023-07-03T13:08:36.131Z,99434.03
2023-07-03T13:09:44.108Z,99437.84
2023-07-03T13:11:03.413Z,99433.72
2023-07-03T13:12:18.331Z,99436.69